Time;durP1;ratioP1;P1;durP2;ratioP2;P2;SDS_P1;SDS_P2;PMS_P1;PMS_P2;Temp;Humidity;BMP_temperature;BMP_pressure;BME280_temperature;BME280_humidity;BME280_pressure;Samples;Min_cycle;Max_cycle;Signal;HPM_P1;HPM_P2
2023/09/23 00:00:32;;;;;;;4.20;2.30;;;;;;;26.02;55.60;101751.86;110469;1272;22138;-58
2023/09/23 00:02:59;;;;;;;3.40;2.20;;;;;;;26.01;55.76;101754.19;110213;1274;22171;-59
2023/09/23 00:05:29;;;;;;;4.00;2.30;;;;;;;26.02;55.98;101746.67;110194;1268;22297;-58
2023/09/23 00:07:57;;;;;;;4.00;2.30;;;;;;;26.02;55.83;101742.96;110568;1257;22437;-58
2023/09/23 00:10:24;;;;;;;4.90;2.80;;;;;;;26.01;55.68;101747.09;110498;1257;22407;-58
2023/09/23 00:12:53;;;;;;;4.90;2.50;;;;;;;26.02;55.82;101750.44;110544;1256;22177;-59
2023/09/23 00:15:20;;;;;;;6.40;2.00;;;;;;;26.02;55.84;101754.69;110577;1268;22307;-59
2023/09/23 00:17:49;;;;;;;3.00;2.50;;;;;;;26.03;55.67;101752.83;110533;1273;23094;-59
2023/09/23 00:20:17;;;;;;;3.40;2.50;;;;;;;26.05;55.89;101748.77;110532;1258;22172;-59
2023/09/23 00:22:47;;;;;;;5.20;2.40;;;;;;;26.09;55.83;101745.29;110471;1257;22399;-59
2023/09/23 00:25:18;;;;;;;3.00;2.30;;;;;;;26.11;55.76;101740.70;110523;1269;22339;-59
2023/09/23 00:27:46;;;;;;;;;;;;;;;26.11;55.70;101744.77;110335;1260;23211;-58
2023/09/23 00:30:14;;;;;;;3.50;2.30;;;;;;;26.12;55.56;101746.38;110539;1258;22960;-58
2023/09/23 00:32:43;;;;;;;3.60;2.50;;;;;;;26.11;55.64;101741.78;110527;1258;22579;-59
2023/09/23 00:35:11;;;;;;;3.60;2.50;;;;;;;26.13;55.56;101746.81;110231;1273;22162;-58
2023/09/23 00:37:42;;;;;;;3.10;2.60;;;;;;;26.12;55.46;101742.23;110485;1259;22338;-59
2023/09/23 00:40:16;;;;;;;2.80;2.50;;;;;;;26.12;55.61;101738.14;110451;1259;22419;-58
2023/09/23 00:42:47;;;;;;;2.50;2.30;;;;;;;26.13;55.73;101737.93;110506;1269;22968;-59
2023/09/23 00:45:16;;;;;;;2.70;2.50;;;;;;;26.13;55.78;101738.59;110241;1261;22432;-58
2023/09/23 00:47:45;;;;;;;3.00;2.30;;;;;;;26.14;55.69;101738.90;110290;1260;22434;-58
2023/09/23 00:50:19;;;;;;;5.00;2.90;;;;;;;26.14;55.64;101741.20;110464;1268;22406;-59
2023/09/23 00:52:49;;;;;;;2.60;2.10;;;;;;;26.14;55.57;101749.95;110490;1255;22128;-59
2023/09/23 00:55:20;;;;;;;3.40;2.50;;;;;;;26.15;55.46;101753.23;110091;1264;22152;-58
2023/09/23 00:57:49;;;;;;;2.70;2.50;;;;;;;26.17;55.33;101758.27;110482;1269;22400;-59
2023/09/23 01:00:25;;;;;;;3.40;2.30;;;;;;;26.16;55.51;101761.74;110257;1260;22162;-58
2023/09/23 01:02:59;;;;;;;4.80;2.60;;;;;;;26.19;55.24;101760.80;110126;1261;22310;-59
2023/09/23 01:05:29;;;;;;;3.40;2.40;;;;;;;26.21;54.97;101761.38;110357;1256;22846;-58
2023/09/23 01:08:11;;;;;;;2.50;2.30;;;;;;;26.24;54.71;101763.66;110517;1256;23228;-59
2023/09/23 01:10:39;;;;;;;3.90;2.50;;;;;;;26.24;54.67;101767.86;110329;1275;22946;-58
2023/09/23 01:13:11;;;;;;;2.80;2.20;;;;;;;26.24;54.78;101765.19;110568;1256;22397;-59
2023/09/23 01:15:41;;;;;;;;;;;;;;;26.24;54.79;101761.51;110565;1257;22397;-58
2023/09/23 01:18:18;;;;;;;3.60;2.40;;;;;;;26.21;54.87;101765.28;110451;1258;22163;-58
2023/09/23 01:20:49;;;;;;;2.60;2.20;;;;;;;26.18;54.92;101766.20;110253;1260;22295;-58
2023/09/23 01:23:17;;;;;;;2.80;2.50;;;;;;;26.18;54.73;101762.27;110620;1257;22163;-58
2023/09/23 01:25:45;;;;;;;4.40;2.30;;;;;;;26.18;54.73;101758.71;110486;1258;23100;-59
2023/09/23 01:28:13;;;;;;;4.60;3.00;;;;;;;26.18;54.72;101760.89;110335;1260;22382;-59
2023/09/23 01:30:43;;;;;;;8.70;3.40;;;;;;;26.17;54.70;101758.41;110155;1261;22437;-59
2023/09/23 01:33:14;;;;;;;3.20;2.50;;;;;;;26.17;54.63;101755.22;110157;1262;23009;-59
2023/09/23 01:35:42;;;;;;;3.20;2.40;;;;;;;26.17;54.73;101749.70;110232;1260;22251;-59
2023/09/23 01:38:09;;;;;;;3.30;2.10;;;;;;;26.17;54.76;101750.29;110499;1256;22253;-58
2023/09/23 01:40:39;;;;;;;2.50;2.30;;;;;;;26.16;54.53;101753.87;110275;1268;22453;-59
2023/09/23 01:43:07;;;;;;;2.90;2.30;;;;;;;26.16;54.50;101751.56;110439;1258;22784;-59
2023/09/23 01:45:36;;;;;;;2.70;2.50;;;;;;;26.16;54.54;101750.84;110521;1256;22330;-58
2023/09/23 01:48:03;;;;;;;2.60;2.00;;;;;;;26.15;54.42;101746.46;110489;1257;22411;-59
2023/09/23 01:50:31;;;;;;;3.60;2.40;;;;;;;26.16;54.18;101749.23;110527;1257;22143;-58
2023/09/23 01:53:02;;;;;;;2.60;2.30;;;;;;;26.18;54.18;101753.73;110588;1256;22749;-58
2023/09/23 01:55:30;;;;;;;3.30;2.20;;;;;;;26.18;54.21;101757.09;110380;1256;22423;-58
2023/09/23 01:57:58;;;;;;;5.10;2.30;;;;;;;26.18;54.41;101757.80;110584;1256;22389;-58
2023/09/23 02:00:28;;;;;;;2.50;2.30;;;;;;;26.19;54.30;101757.77;110217;1275;22299;-58
2023/09/23 02:02:57;;;;;;;3.10;2.30;;;;;;;26.17;54.41;101758.61;110459;1263;22353;-58
2023/09/23 02:05:27;;;;;;;2.70;2.40;;;;;;;26.15;54.36;101755.70;110542;1256;22397;-58
2023/09/23 02:07:55;;;;;;;2.30;2.10;;;;;;;26.15;54.10;101758.78;109810;1259;1003050;-58
2023/09/23 02:10:24;;;;;;;5.20;2.10;;;;;;;26.14;53.99;101756.67;110374;1258;22310;-59
2023/09/23 02:12:52;;;;;;;2.70;2.10;;;;;;;26.15;53.92;101758.97;110614;1256;23036;-58
2023/09/23 02:15:20;;;;;;;5.40;1.90;;;;;;;26.14;53.85;101760.42;109803;1275;1002074;-58
2023/09/23 02:17:48;;;;;;;4.20;2.10;;;;;;;26.16;53.66;101759.95;110416;1263;22350;-59
2023/09/23 02:20:20;;;;;;;2.20;2.00;;;;;;;26.18;53.62;101765.16;110492;1254;22387;-58
2023/09/23 02:22:50;;;;;;;2.70;2.40;;;;;;;26.24;53.87;101771.83;110528;1272;22290;-59
2023/09/23 02:25:18;;;;;;;2.20;2.00;;;;;;;26.27;53.74;101773.15;110280;1275;22309;-58
2023/09/23 02:27:46;;;;;;;3.00;1.80;;;;;;;26.28;53.62;101772.25;110579;1253;22159;-58
2023/09/23 02:30:14;;;;;;;2.50;2.30;;;;;;;26.29;53.46;101773.95;110552;1268;22302;-58
2023/09/23 02:32:43;;;;;;;5.50;2.50;;;;;;;26.30;53.34;101770.63;110528;1267;22296;-60
2023/09/23 02:35:11;;;;;;;3.20;2.30;;;;;;;26.30;53.63;101774.02;110547;1257;22402;-58
2023/09/23 02:37:40;;;;;;;2.20;2.00;;;;;;;26.26;53.61;101780.33;110520;1275;22920;-59
2023/09/23 02:40:12;;;;;;;3.10;2.10;;;;;;;26.18;54.15;101782.20;110235;1260;22148;-58
2023/09/23 02:42:44;;;;;;;4.40;2.00;;;;;;;26.17;54.24;101784.05;110565;1262;22166;-58
2023/09/23 02:45:13;;;;;;;3.00;2.00;;;;;;;26.16;54.39;101779.84;110483;1269;22307;-58
2023/09/23 02:47:43;;;;;;;2.20;1.60;;;;;;;26.16;54.34;101775.02;110586;1256;22136;-58
2023/09/23 02:50:13;;;;;;;3.60;2.30;;;;;;;26.17;54.19;101776.58;110247;1260;22378;-58
2023/09/23 02:52:44;;;;;;;2.50;1.90;;;;;;;26.17;54.46;101775.89;110545;1258;23121;-59
2023/09/23 02:55:14;;;;;;;2.00;1.80;;;;;;;26.17;54.61;101784.59;110508;1257;22345;-58
2023/09/23 02:57:49;;;;;;;4.10;1.80;;;;;;;26.16;54.70;101783.94;110507;1259;22454;-58
2023/09/23 03:00:24;;;;;;;2.50;2.10;;;;;;;26.18;54.60;101784.88;110533;1272;22336;-58
2023/09/23 03:02:56;;;;;;;2.00;1.90;;;;;;;26.17;54.69;101787.42;110556;1258;23047;-59
2023/09/23 03:05:28;;;;;;;2.60;1.70;;;;;;;26.17;54.74;101790.47;110525;1257;23015;-58
2023/09/23 03:07:58;;;;;;;1.90;1.80;;;;;;;26.16;54.82;101788.91;110337;1259;22394;-58
2023/09/23 03:10:32;;;;;;;1.90;1.80;;;;;;;26.15;54.83;101777.77;110557;1256;23067;-58
2023/09/23 03:13:07;;;;;;;1.80;1.70;;;;;;;26.16;54.88;101780.76;110483;1256;22395;-58
2023/09/23 03:15:50;;;;;;;1.60;1.50;;;;;;;26.16;55.00;101785.73;110500;1254;23077;-58
2023/09/23 03:21:17;;;;;;;4.40;2.10;;;;;;;26.14;54.97;101795.64;110015;1263;22371;-58
2023/09/23 03:23:45;;;;;;;3.20;2.00;;;;;;;26.13;55.05;101798.34;110536;1257;22308;-59
2023/09/23 03:26:14;;;;;;;2.50;1.80;;;;;;;26.14;55.05;101800.78;110212;1260;22532;-59
2023/09/23 03:28:42;;;;;;;4.30;2.00;;;;;;;26.20;54.97;101800.20;110314;1260;22398;-58
2023/09/23 03:31:11;;;;;;;2.50;1.60;;;;;;;26.34;54.55;101804.30;110585;1259;22401;-58
2023/09/23 03:33:47;;;;;;;2.50;1.80;;;;;;;26.38;54.42;101802.81;110380;1258;22888;-59
2023/09/23 03:36:20;;;;;;;2.80;1.90;;;;;;;26.39;54.12;101800.96;110566;1257;22348;-58
2023/09/23 03:38:49;;;;;;;2.30;1.80;;;;;;;26.38;54.12;101796.20;110364;1272;22301;-58
2023/09/23 03:41:16;;;;;;;3.00;1.70;;;;;;;26.34;54.29;101793.12;110497;1273;22130;-58
2023/09/23 03:43:44;;;;;;;2.50;1.90;;;;;;;26.38;54.21;101794.39;110571;1254;22298;-58
2023/09/23 03:46:17;;;;;;;2.20;2.00;;;;;;;26.38;54.07;101794.77;110576;1257;22224;-58
2023/09/23 03:48:44;;;;;;;4.50;2.30;;;;;;;26.40;54.10;101793.77;110607;1268;22414;-58
2023/09/23 03:51:14;;;;;;;2.30;1.70;;;;;;;26.39;54.07;101791.52;110365;1258;22377;-58
2023/09/23 03:53:44;;;;;;;2.50;2.00;;;;;;;26.40;54.09;101788.79;110543;1260;22849;-59
2023/09/23 03:56:11;;;;;;;2.70;1.60;;;;;;;26.40;54.16;101786.46;110464;1258;22326;-58
2023/09/23 03:58:39;;;;;;;3.70;2.00;;;;;;;26.40;54.19;101784.13;110456;1272;22276;-58
2023/09/23 04:01:13;;;;;;;6.00;2.00;;;;;;;26.40;54.14;101781.14;110238;1260;22143;-59
2023/09/23 04:03:41;;;;;;;1.90;1.80;;;;;;;26.39;54.11;101786.89;110562;1272;22382;-58
2023/09/23 04:06:09;;;;;;;2.00;1.80;;;;;;;26.38;54.19;101791.60;110582;1256;23151;-58
2023/09/23 04:08:36;;;;;;;2.40;1.90;;;;;;;26.39;54.03;101795.43;110532;1257;22154;-59
2023/09/23 04:11:05;;;;;;;2.90;2.00;;;;;;;26.39;54.12;101801.66;110540;1256;22802;-59
2023/09/23 04:13:32;;;;;;;2.30;2.10;;;;;;;26.40;54.07;101800.15;110493;1275;22391;-59
2023/09/23 04:16:00;;;;;;;3.50;1.90;;;;;;;26.44;54.05;101807.39;110527;1257;22136;-59
2023/09/23 04:18:29;;;;;;;3.20;1.90;;;;;;;26.45;54.22;101810.67;110105;1263;22365;-59
2023/09/23 04:20:57;;;;;;;2.20;1.90;;;;;;;26.46;54.12;101809.86;110547;1256;22167;-58
2023/09/23 04:23:24;;;;;;;2.30;1.80;;;;;;;26.47;54.22;101807.13;110439;1269;22781;-59
2023/09/23 04:25:52;;;;;;;3.90;2.00;;;;;;;26.47;54.32;101808.71;110551;1256;22341;-59
2023/09/23 04:28:20;;;;;;;1.90;1.70;;;;;;;26.48;54.27;101809.54;110546;1256;22381;-59
2023/09/23 04:30:54;;;;;;;2.90;1.80;;;;;;;26.48;54.36;101812.02;110572;1256;22938;-59
2023/09/23 04:33:24;;;;;;;3.50;1.90;;;;;;;26.51;54.27;101812.02;110416;1276;22133;-58
2023/09/23 04:35:52;;;;;;;3.10;2.10;;;;;;;26.56;54.24;101810.20;110475;1258;22296;-59
2023/09/23 04:38:19;;;;;;;3.60;2.20;;;;;;;26.65;54.01;101810.83;110467;1256;22298;-59
2023/09/23 04:40:47;;;;;;;2.90;2.10;;;;;;;26.68;54.07;101808.12;110468;1256;22407;-59
2023/09/23 04:43:16;;;;;;;6.10;2.00;;;;;;;26.73;53.84;101814.84;110202;1270;22368;-59
2023/09/23 04:45:44;;;;;;;2.90;2.20;;;;;;;26.75;53.88;101822.06;110251;1268;22453;-59
2023/09/23 04:48:11;;;;;;;2.90;2.10;;;;;;;26.75;54.01;101827.58;110464;1254;22419;-59
2023/09/23 04:50:39;;;;;;;2.40;2.20;;;;;;;26.78;53.99;101829.63;110478;1270;22930;-59
2023/09/23 04:53:07;;;;;;;2.30;2.10;;;;;;;26.80;53.90;101826.98;110464;1257;23098;-60
2023/09/23 04:55:35;;;;;;;3.80;2.20;;;;;;;26.84;53.83;101826.35;110221;1262;22350;-58
2023/09/23 04:58:04;;;;;;;2.40;2.10;;;;;;;26.93;53.62;101829.91;110443;1257;22140;-59
2023/09/23 05:00:36;;;;;;;2.40;1.80;;;;;;;26.91;53.82;101831.55;110553;1257;22949;-58
2023/09/23 05:03:05;;;;;;;2.30;1.80;;;;;;;26.91;53.86;101829.36;110580;1267;22169;-59
2023/09/23 05:05:34;;;;;;;4.20;1.80;;;;;;;26.93;53.85;101827.98;110450;1259;23131;-59
2023/09/23 05:08:09;;;;;;;2.30;2.00;;;;;;;26.96;53.89;101826.73;110488;1259;22149;-58
2023/09/23 05:10:39;;;;;;;2.40;2.00;;;;;;;26.97;54.00;101827.12;110277;1271;22311;-59
2023/09/23 05:13:09;;;;;;;2.70;1.90;;;;;;;27.00;54.02;101829.59;110483;1257;22338;-59
2023/09/23 05:15:37;;;;;;;4.40;2.00;;;;;;;27.03;54.05;101829.92;110423;1275;22428;-59
2023/09/23 05:18:05;;;;;;;3.70;2.20;;;;;;;27.06;53.98;101833.44;110471;1275;22380;-59
2023/09/23 05:20:34;;;;;;;2.80;2.20;;;;;;;27.07;54.00;101835.14;110566;1270;22357;-58
2023/09/23 05:23:04;;;;;;;4.90;2.10;;;;;;;27.10;54.09;101840.40;110593;1266;22302;-58
2023/09/23 05:25:33;;;;;;;4.50;2.30;;;;;;;27.13;54.05;101839.50;110575;1257;22985;-58
2023/09/23 05:28:02;;;;;;;5.90;2.00;;;;;;;27.16;54.07;101835.73;110516;1257;22830;-58
2023/09/23 05:30:30;;;;;;;2.50;1.80;;;;;;;27.20;54.08;101838.45;110407;1272;22858;-58
2023/09/23 05:32:58;;;;;;;3.60;1.90;;;;;;;27.14;54.21;101840.70;110471;1254;22374;-58
2023/09/23 05:35:27;;;;;;;3.30;2.20;;;;;;;27.15;54.11;101842.86;110467;1256;22981;-58
2023/09/23 05:37:55;;;;;;;2.30;1.90;;;;;;;27.15;53.98;101843.42;110425;1262;22375;-58
2023/09/23 05:42:50;;;;;;;2.50;1.80;;;;;;;27.22;53.61;101851.48;110272;1276;22303;-59
2023/09/23 05:45:18;;;;;;;4.10;2.40;;;;;;;27.24;53.58;101852.33;110455;1258;22109;-58
2023/09/23 05:47:46;;;;;;;3.90;2.30;;;;;;;27.30;53.66;101855.88;110574;1258;22172;-58
2023/09/23 05:50:15;;;;;;;2.70;1.70;;;;;;;27.32;53.79;101859.95;110542;1255;22348;-59
2023/09/23 05:52:45;;;;;;;3.80;2.00;;;;;;;27.36;53.91;101864.71;110439;1275;23076;-58
2023/09/23 05:55:13;;;;;;;3.70;2.10;;;;;;;27.44;53.67;101865.72;110275;1260;22119;-58
2023/09/23 05:57:41;;;;;;;2.70;1.80;;;;;;;27.58;53.25;101868.91;110435;1253;22491;-58
2023/09/23 06:00:11;;;;;;;1.90;1.80;;;;;;;27.66;53.03;101870.47;110464;1269;22165;-59
2023/09/23 06:02:49;;;;;;;4.50;1.90;;;;;;;27.72;52.85;101868.23;110319;1264;22944;-59
2023/09/23 06:05:18;;;;;;;3.70;1.90;;;;;;;27.76;52.83;101868.98;110479;1257;22354;-59
2023/09/23 06:07:46;;;;;;;2.60;2.20;;;;;;;27.81;52.65;101871.98;110478;1254;22399;-58
2023/09/23 06:10:18;;;;;;;2.40;2.00;;;;;;;27.87;52.54;101875.81;110127;1270;364086;-58
2023/09/23 06:12:46;;;;;;;2.50;1.90;;;;;;;27.86;52.60;101883.73;110459;1254;22345;-60
2023/09/23 06:15:39;;;;;;;4.30;2.40;;;;;;;27.92;52.12;101886.43;110440;1257;22439;-56
2023/09/23 06:18:07;;;;;;;3.70;2.50;;;;;;;27.98;51.73;101889.61;110546;1254;22947;-57
2023/09/23 06:23:26;;;;;;;3.10;1.80;;;;;;;27.23;54.03;101894.54;105247;1290;558126;-56
2023/09/23 06:25:54;;;;;;;5.90;2.00;;;;;;;28.22;51.60;101898.98;106249;1276;22544;-56
2023/09/23 06:28:24;;;;;;;2.80;2.10;;;;;;;28.31;51.39;101899.84;106416;1280;22767;-57
2023/09/23 06:30:52;;;;;;;3.00;1.90;;;;;;;28.35;51.17;101904.00;106386;1271;25370;-57
2023/09/23 06:33:19;;;;;;;3.40;2.20;;;;;;;28.37;51.24;101906.13;106282;1264;22541;-57
2023/09/23 06:35:46;;;;;;;2.40;2.20;;;;;;;28.38;51.23;101913.06;105916;1273;461100;-58
2023/09/23 06:38:14;;;;;;;2.70;2.30;;;;;;;28.39;51.18;101916.16;106357;1273;25366;-57
2023/09/23 06:40:41;;;;;;;3.50;1.90;;;;;;;28.40;51.37;101917.71;106438;1264;24266;-57
2023/09/23 06:43:08;;;;;;;3.90;2.30;;;;;;;28.43;51.45;101918.18;106335;1266;25334;-57
2023/09/23 06:45:35;;;;;;;4.10;2.30;;;;;;;28.46;51.59;101915.77;106999;1267;24207;-58
2023/09/23 06:48:03;;;;;;;3.30;2.10;;;;;;;28.50;51.42;101915.80;106808;1271;25324;-57
2023/09/23 06:50:30;;;;;;;4.70;2.50;;;;;;;28.55;51.32;101918.81;106806;1260;22566;-57
2023/09/23 06:52:57;;;;;;;7.00;2.20;;;;;;;28.63;51.18;101920.35;106688;1263;22526;-58
2023/09/23 06:55:25;;;;;;;2.90;2.10;;;;;;;28.75;51.09;101917.77;106956;1258;25356;-58
2023/09/23 06:57:52;;;;;;;2.50;2.10;;;;;;;28.88;50.51;101925.46;106837;1259;25385;-57
2023/09/23 07:00:20;;;;;;;3.70;2.10;;;;;;;28.97;50.07;101926.89;106888;1257;25337;-57
2023/09/23 07:02:47;;;;;;;2.30;2.10;;;;;;;29.04;49.74;101928.65;106830;1261;25372;-58
2023/09/23 07:05:15;;;;;;;3.80;2.20;;;;;;;29.11;49.73;101928.49;106688;1264;24233;-58
2023/09/23 07:07:42;;;;;;;2.60;2.30;;;;;;;29.19;49.53;101928.22;106853;1257;24252;-57
2023/09/23 07:10:10;;;;;;;2.50;2.10;;;;;;;29.25;49.43;101928.20;106804;1260;25387;-57
2023/09/23 07:12:37;;;;;;;2.30;2.20;;;;;;;29.33;49.02;101925.60;106955;1260;22523;-57
2023/09/23 07:15:05;;;;;;;2.80;2.10;;;;;;;29.36;48.88;101926.92;106766;1270;23947;-58
2023/09/23 07:17:31;;;;;;;4.60;1.90;;;;;;;29.39;48.96;101928.80;106351;1271;24394;-57
2023/09/23 07:19:59;;;;;;;2.80;1.90;;;;;;;29.44;48.79;101933.09;106562;1264;24207;-57
2023/09/23 07:22:26;;;;;;;3.10;2.20;;;;;;;29.49;48.68;101936.24;106567;1273;25463;-57
2023/09/23 07:24:53;;;;;;;3.70;2.00;;;;;;;29.52;48.52;101939.21;107045;1257;25338;-57
2023/09/23 07:27:20;;;;;;;2.90;2.20;;;;;;;29.53;48.33;101938.71;106945;1260;25341;-56
2023/09/23 07:29:47;;;;;;;3.40;2.40;;;;;;;29.56;48.18;101940.61;106890;1264;23273;-58
2023/09/23 07:32:14;;;;;;;3.40;2.20;;;;;;;29.53;48.24;101942.13;106934;1257;24243;-56
2023/09/23 07:34:41;;;;;;;2.60;2.10;;;;;;;29.56;48.20;101943.16;106804;1257;25408;-58
2023/09/23 07:37:10;;;;;;;3.40;2.10;;;;;;;29.57;47.88;101944.48;106843;1267;25408;-58
2023/09/23 07:39:39;;;;;;;2.40;2.10;;;;;;;29.57;47.77;101942.19;106757;1260;25373;-58
2023/09/23 07:42:05;;;;;;;3.00;2.00;;;;;;;29.53;47.89;101945.35;106735;1260;24356;-57
2023/09/23 07:44:32;;;;;;;3.30;2.00;;;;;;;29.50;47.79;101947.91;107009;1271;25554;-58
2023/09/23 07:46:59;;;;;;;3.90;2.00;;;;;;;29.48;48.04;101949.75;106804;1260;22553;-56
2023/09/23 07:49:26;;;;;;;3.50;2.20;;;;;;;29.51;47.98;101951.64;106778;1257;25404;-57
2023/09/23 07:51:56;;;;;;;2.40;1.90;;;;;;;29.52;48.07;101952.62;106828;1261;23910;-57
2023/09/23 07:54:23;;;;;;;2.10;1.90;;;;;;;29.52;47.70;101953.67;106786;1258;25384;-58
2023/09/23 07:56:50;;;;;;;4.90;2.00;;;;;;;29.53;47.65;101953.61;106767;1258;24205;-58
2023/09/23 07:59:17;;;;;;;4.00;1.80;;;;;;;29.53;47.72;101955.36;106801;1260;22588;-59
2023/09/23 08:01:44;;;;;;;2.80;2.10;;;;;;;29.56;47.74;101957.08;106847;1257;24219;-58
2023/09/23 08:04:11;;;;;;;2.40;1.80;;;;;;;29.59;47.68;101956.67;106972;1260;25353;-57
2023/09/23 08:06:38;;;;;;;4.40;2.60;;;;;;;29.60;47.53;101962.14;106821;1272;24205;-57
2023/09/23 08:09:06;;;;;;;3.90;2.00;;;;;;;29.58;47.48;101963.69;106512;1264;25350;-58
2023/09/23 08:11:33;;;;;;;6.10;2.30;;;;;;;29.57;47.52;101966.82;106990;1267;25328;-61
2023/09/23 08:14:00;;;;;;;13.00;2.70;;;;;;;29.66;47.52;101961.82;107005;1254;25226;-60
2023/09/23 08:16:28;;;;;;;3.80;2.40;;;;;;;29.74;47.45;101960.65;107043;1254;25424;-58
2023/09/23 08:18:55;;;;;;;2.70;2.00;;;;;;;29.73;47.47;101956.77;107013;1264;25337;-58
2023/09/23 08:21:22;;;;;;;5.30;2.20;;;;;;;29.59;47.74;101959.13;107295;1251;25477;-58
2023/09/23 08:23:49;;;;;;;3.60;1.90;;;;;;;29.59;47.80;101955.23;107271;1251;23420;-58
2023/09/23 08:26:16;;;;;;;4.60;2.80;;;;;;;29.61;47.75;101957.20;107161;1254;25478;-60
2023/09/23 08:28:43;;;;;;;2.10;1.90;;;;;;;29.64;47.87;101955.13;106800;1254;22517;-58
2023/09/23 08:31:12;;;;;;;6.10;2.80;;;;;;;29.64;47.94;101955.67;106821;1258;25347;-57
2023/09/23 08:33:43;;;;;;;3.90;2.30;;;;;;;29.69;47.96;101957.45;107139;1257;25328;-58
2023/09/23 08:36:10;;;;;;;2.00;1.90;;;;;;;29.73;47.67;101956.36;107254;1267;22527;-57
2023/09/23 08:38:37;;;;;;;2.40;2.20;;;;;;;29.77;47.50;101960.51;106856;1274;25318;-58
2023/09/23 08:41:06;;;;;;;10.20;5.90;;;;;;;29.80;47.44;101961.02;107191;1254;25341;-57
2023/09/23 08:43:38;;;;;;;15.30;8.20;;;;;;;29.82;47.46;101966.02;107086;1263;22645;-57
2023/09/23 08:46:05;;;;;;;13.80;7.60;;;;;;;29.84;47.44;101968.32;107197;1258;25376;-58
2023/09/23 08:48:33;;;;;;;19.40;8.60;;;;;;;29.98;46.94;101969.36;107103;1260;25347;-58
2023/09/23 08:51:01;;;;;;;33.50;15.70;;;;;;;30.04;46.34;101966.27;107187;1254;25318;-58
2023/09/23 08:53:31;;;;;;;36.70;15.80;;;;;;;30.05;46.19;101968.88;107040;1267;24239;-58
2023/09/23 08:56:02;;;;;;;29.50;13.30;;;;;;;30.05;46.35;101971.77;107182;1256;24237;-57
2023/09/23 08:58:30;;;;;;;20.30;9.40;;;;;;;30.05;46.45;101970.34;107131;1266;25564;-58
2023/09/23 09:00:57;;;;;;;14.30;7.20;;;;;;;30.05;46.32;101972.81;106989;1270;22526;-57
2023/09/23 09:03:24;;;;;;;27.00;13.10;;;;;;;29.98;46.54;101966.80;107203;1264;24364;-58
2023/09/23 09:05:52;;;;;;;17.90;9.10;;;;;;;29.96;46.70;101971.96;107149;1254;22520;-58
2023/09/23 09:08:19;;;;;;;29.10;12.80;;;;;;;29.97;46.60;101971.88;107098;1254;24017;-58
2023/09/23 09:10:46;;;;;;;35.70;16.50;;;;;;;29.95;46.64;101972.93;107229;1256;25290;-57
2023/09/23 09:13:17;;;;;;;23.90;11.70;;;;;;;29.98;46.66;101974.17;107373;1257;25359;-58
2023/09/23 09:15:44;;;;;;;8.40;5.70;;;;;;;30.00;46.67;101975.91;107338;1260;25395;-57
2023/09/23 09:18:12;;;;;;;9.00;5.40;;;;;;;30.04;46.47;101972.39;107201;1252;24208;-57
2023/09/23 09:20:40;;;;;;;9.50;4.60;;;;;;;30.06;46.47;101968.30;106995;1267;25331;-57
2023/09/23 09:23:07;;;;;;;8.90;4.00;;;;;;;30.07;46.52;101970.13;107023;1257;25350;-58
2023/09/23 09:25:34;;;;;;;6.50;3.30;;;;;;;30.09;46.37;101966.38;107282;1253;25318;-57
2023/09/23 09:28:02;;;;;;;4.40;2.50;;;;;;;30.11;46.43;101962.46;107461;1257;25366;-57
2023/09/23 09:30:29;;;;;;;3.50;2.70;;;;;;;30.12;46.51;101961.50;107087;1254;23276;-57
2023/09/23 09:32:58;;;;;;;4.00;2.30;;;;;;;30.13;46.24;101962.66;107441;1256;25318;-58
2023/09/23 09:35:25;;;;;;;2.20;1.80;;;;;;;30.14;46.26;101962.59;107191;1257;22516;-57
2023/09/23 09:37:52;;;;;;;2.80;2.50;;;;;;;30.16;46.42;101960.27;107212;1257;23539;-57
2023/09/23 09:40:37;;;;;;;2.40;1.90;;;;;;;30.18;46.26;101961.85;107551;1253;25455;-58
2023/09/23 09:43:04;;;;;;;2.50;1.80;;;;;;;30.21;46.24;101963.41;107310;1254;24296;-57
2023/09/23 09:45:40;;;;;;;3.50;2.00;;;;;;;30.24;46.17;101955.04;107132;1254;25337;-57
2023/09/23 09:48:08;;;;;;;2.70;2.10;;;;;;;30.28;46.14;101952.61;107609;1254;25370;-58
2023/09/23 09:50:38;;;;;;;5.30;2.50;;;;;;;30.31;46.16;101951.64;107393;1257;22643;-57
2023/09/23 09:53:06;;;;;;;2.20;2.00;;;;;;;30.34;46.20;101949.02;107333;1253;25328;-57
2023/09/23 09:55:33;;;;;;;4.10;2.30;;;;;;;30.37;46.01;101952.02;107317;1251;22531;-57
2023/09/23 09:58:01;;;;;;;3.70;2.50;;;;;;;30.38;45.74;101954.40;107583;1251;25284;-58
2023/09/23 10:00:28;;;;;;;2.30;1.80;;;;;;;30.39;45.65;101953.98;107590;1257;25468;-57
2023/09/23 10:02:58;;;;;;;3.10;1.90;;;;;;;30.37;45.75;101958.27;107060;1259;22528;-57
2023/09/23 10:05:32;;;;;;;2.30;2.10;;;;;;;30.36;45.62;101961.21;107175;1259;25278;-57
2023/09/23 10:08:12;;;;;;;4.80;4.40;;;;;;;30.38;45.63;101959.63;107455;1251;25356;-56
2023/09/23 10:10:44;;;;;;;4.40;2.60;;;;;;;30.38;45.52;101959.10;107447;1250;22656;-57
2023/09/23 10:13:13;;;;;;;3.20;2.80;;;;;;;30.38;45.65;101958.53;107184;1257;25356;-57
2023/09/23 10:15:40;;;;;;;4.20;2.70;;;;;;;30.38;45.70;101958.33;107469;1251;24675;-57
2023/09/23 10:18:09;;;;;;;2.60;2.40;;;;;;;30.39;45.54;101962.23;107298;1256;22748;-57
2023/09/23 10:20:46;;;;;;;4.70;2.50;;;;;;;30.37;45.62;101954.65;107626;1257;24500;-57
2023/09/23 10:23:15;;;;;;;2.90;2.20;;;;;;;30.40;45.58;101949.05;107431;1251;25381;-56
2023/09/23 10:25:43;;;;;;;3.20;2.10;;;;;;;30.44;45.32;101947.81;107360;1251;22649;-56
2023/09/23 10:28:28;;;;;;;3.20;2.00;;;;;;;30.47;45.08;101947.30;107467;1254;23236;-58
2023/09/23 10:30:59;;;;;;;3.20;2.00;;;;;;;30.50;44.93;101950.48;107864;1253;22543;-57
2023/09/23 10:33:27;;;;;;;2.40;1.60;;;;;;;30.51;44.98;101952.20;107549;1260;22523;-56
2023/09/23 10:35:56;;;;;;;1.90;1.70;;;;;;;30.52;44.72;101954.13;107349;1266;25441;-58
2023/09/23 10:38:30;;;;;;;2.80;2.10;;;;;;;30.53;44.62;101955.77;107175;1266;25300;-58
2023/09/23 10:40:57;;;;;;;2.50;1.70;;;;;;;30.59;44.50;101954.55;107215;1257;23872;-58
2023/09/23 10:43:25;;;;;;;3.00;1.90;;;;;;;30.59;44.53;101954.98;107184;1270;25325;-58
2023/09/23 10:45:53;;;;;;;2.30;1.80;;;;;;;30.58;44.60;101956.10;107835;1260;23217;-58
2023/09/23 10:48:20;;;;;;;2.60;1.60;;;;;;;30.57;44.63;101957.98;107329;1260;26491;-58
2023/09/23 10:50:49;;;;;;;2.20;2.00;;;;;;;30.56;44.62;101956.82;107475;1260;22739;-58
2023/09/23 10:53:15;;;;;;;2.00;1.80;;;;;;;30.56;44.43;101952.33;106875;1271;25287;-58
2023/09/23 10:55:43;;;;;;;1.80;1.70;;;;;;;30.54;44.49;101955.34;107474;1253;25318;-58
2023/09/23 10:58:10;;;;;;;2.00;1.90;;;;;;;30.53;44.36;101954.00;106954;1257;25319;-57
2023/09/23 11:00:37;;;;;;;3.00;1.70;;;;;;;30.52;44.39;101954.45;106839;1270;25338;-58
2023/09/23 11:03:09;;;;;;;8.00;1.80;;;;;;;30.52;44.37;101954.27;107529;1257;22523;-58
2023/09/23 11:05:37;;;;;;;3.10;1.60;;;;;;;30.50;44.43;101949.92;107179;1253;24252;-58
2023/09/23 11:08:12;;;;;;;2.20;1.60;;;;;;;30.49;44.42;101942.32;106841;1273;25383;-57
2023/09/23 11:10:43;;;;;;;2.30;1.90;;;;;;;30.48;44.35;101938.69;107376;1250;23577;-57
2023/09/23 11:13:11;;;;;;;1.70;1.60;;;;;;;30.53;44.11;101935.02;107094;1267;22538;-57
2023/09/23 11:15:39;;;;;;;2.00;1.60;;;;;;;30.51;44.10;101930.54;107179;1260;25503;-63
2023/09/23 11:18:16;;;;;;;3.40;1.60;;;;;;;30.50;44.14;101923.96;107035;1272;22750;-65
2023/09/23 11:20:46;;;;;;;2.10;1.90;;;;;;;30.47;44.48;101919.06;107131;1251;26468;-66
2023/09/23 11:23:14;;;;;;;4.40;1.80;;;;;;;30.42;44.74;101915.75;107204;1253;22559;-65
2023/09/23 11:25:48;;;;;;;1.80;1.70;;;;;;;30.40;44.60;101916.96;107159;1254;25337;-68
2023/09/23 11:28:21;;;;;;;4.30;1.90;;;;;;;30.41;44.60;101924.83;107205;1266;25328;-66
2023/09/23 11:30:49;;;;;;;2.10;1.60;;;;;;;30.40;44.70;101928.27;107158;1260;22641;-68
2023/09/23 11:33:16;;;;;;;1.80;1.60;;;;;;;30.39;44.54;101924.59;107063;1266;25409;-65